sensor_id;sensor_type;location;lat;lon;timestamp;P1;durP1;ratioP1;P2;durP2;ratioP2
51949;SDS011;37974;53.218;6.640;2023-07-20T00:00:13;2.90;;;1.50;;
51949;SDS011;37974;53.218;6.640;2023-07-20T00:02:40;3.80;;;1.20;;
51949;SDS011;37974;53.218;6.640;2023-07-20T00:05:19;3.08;;;1.15;;
51949;SDS011;37974;53.218;6.640;2023-07-20T00:08:15;4.40;;;1.27;;
51949;SDS011;37974;53.218;6.640;2023-07-20T00:10:42;3.78;;;1.00;;
51949;SDS011;37974;53.218;6.640;2023-07-20T00:13:08;3.63;;;1.20;;
51949;SDS011;37974;53.218;6.640;2023-07-20T00:15:34;3.65;;;1.23;;
51949;SDS011;37974;53.218;6.640;2023-07-20T00:18:03;3.47;;;1.52;;
51949;SDS011;37974;53.218;6.640;2023-07-20T00:20:29;3.90;;;1.33;;
51949;SDS011;37974;53.218;6.640;2023-07-20T00:23:01;2.65;;;1.20;;
51949;SDS011;37974;53.218;6.640;2023-07-20T00:25:27;5.45;;;1.30;;
51949;SDS011;37974;53.218;6.640;2023-07-20T00:27:53;7.43;;;1.40;;
51949;SDS011;37974;53.218;6.640;2023-07-20T00:30:22;3.92;;;1.30;;
51949;SDS011;37974;53.218;6.640;2023-07-20T00:32:57;3.15;;;1.40;;
51949;SDS011;37974;53.218;6.640;2023-07-20T00:38:05;2.70;;;1.35;;
51949;SDS011;37974;53.218;6.640;2023-07-20T00:40:40;3.20;;;1.40;;
51949;SDS011;37974;53.218;6.640;2023-07-20T00:43:09;5.35;;;1.80;;
51949;SDS011;37974;53.218;6.640;2023-07-20T00:45:56;4.78;;;1.60;;
51949;SDS011;37974;53.218;6.640;2023-07-20T00:48:28;4.80;;;1.58;;
51949;SDS011;37974;53.218;6.640;2023-07-20T00:51:04;4.18;;;1.70;;
51949;SDS011;37974;53.218;6.640;2023-07-20T00:53:30;8.20;;;1.70;;
51949;SDS011;37974;53.218;6.640;2023-07-20T00:55:56;4.90;;;1.60;;
51949;SDS011;37974;53.218;6.640;2023-07-20T00:58:22;4.28;;;1.70;;
51949;SDS011;37974;53.218;6.640;2023-07-20T01:00:56;5.22;;;1.42;;
51949;SDS011;37974;53.218;6.640;2023-07-20T01:03:22;3.05;;;1.30;;
51949;SDS011;37974;53.218;6.640;2023-07-20T01:05:54;4.45;;;1.40;;
51949;SDS011;37974;53.218;6.640;2023-07-20T01:08:43;5.65;;;1.50;;
51949;SDS011;37974;53.218;6.640;2023-07-20T01:11:13;3.20;;;1.40;;
51949;SDS011;37974;53.218;6.640;2023-07-20T01:13:43;3.10;;;1.27;;
51949;SDS011;37974;53.218;6.640;2023-07-20T01:16:09;3.20;;;1.52;;
51949;SDS011;37974;53.218;6.640;2023-07-20T01:18:35;4.72;;;1.58;;
51949;SDS011;37974;53.218;6.640;2023-07-20T01:36:33;3.45;;;1.60;;
51949;SDS011;37974;53.218;6.640;2023-07-20T01:39:07;2.53;;;1.35;;
51949;SDS011;37974;53.218;6.640;2023-07-20T01:41:34;3.83;;;1.23;;
51949;SDS011;37974;53.218;6.640;2023-07-20T01:44:00;4.47;;;1.40;;
51949;SDS011;37974;53.218;6.640;2023-07-20T01:46:26;3.00;;;1.35;;
51949;SDS011;37974;53.218;6.640;2023-07-20T01:48:52;4.90;;;1.88;;
51949;SDS011;37974;53.218;6.640;2023-07-20T01:51:27;4.63;;;1.52;;
51949;SDS011;37974;53.218;6.640;2023-07-20T01:53:53;3.47;;;1.13;;
51949;SDS011;37974;53.218;6.640;2023-07-20T01:56:21;2.78;;;1.30;;
51949;SDS011;37974;53.218;6.640;2023-07-20T01:58:47;5.07;;;1.70;;
51949;SDS011;37974;53.218;6.640;2023-07-20T02:01:12;3.50;;;1.38;;
51949;SDS011;37974;53.218;6.640;2023-07-20T02:03:41;6.75;;;1.58;;
51949;SDS011;37974;53.218;6.640;2023-07-20T02:06:06;8.15;;;1.58;;
51949;SDS011;37974;53.218;6.640;2023-07-20T02:08:36;3.60;;;1.52;;
51949;SDS011;37974;53.218;6.640;2023-07-20T02:11:07;2.78;;;1.30;;
51949;SDS011;37974;53.218;6.640;2023-07-20T02:13:35;2.90;;;1.42;;
51949;SDS011;37974;53.218;6.640;2023-07-20T02:16:04;3.25;;;1.27;;
51949;SDS011;37974;53.218;6.640;2023-07-20T02:18:33;4.78;;;1.65;;
51949;SDS011;37974;53.218;6.640;2023-07-20T02:21:08;5.15;;;1.60;;
51949;SDS011;37974;53.218;6.640;2023-07-20T02:23:43;7.07;;;1.60;;
51949;SDS011;37974;53.218;6.640;2023-07-20T02:26:14;3.55;;;1.38;;
51949;SDS011;37974;53.218;6.640;2023-07-20T02:28:40;1.75;;;1.13;;
51949;SDS011;37974;53.218;6.640;2023-07-20T02:31:06;7.43;;;1.30;;
51949;SDS011;37974;53.218;6.640;2023-07-20T02:33:32;2.80;;;1.40;;
51949;SDS011;37974;53.218;6.640;2023-07-20T02:36:01;3.33;;;1.17;;
51949;SDS011;37974;53.218;6.640;2023-07-20T02:38:38;3.58;;;1.40;;
51949;SDS011;37974;53.218;6.640;2023-07-20T02:41:10;4.32;;;1.02;;
51949;SDS011;37974;53.218;6.640;2023-07-20T02:43:39;2.28;;;1.02;;
51949;SDS011;37974;53.218;6.640;2023-07-20T02:46:07;2.42;;;1.50;;
51949;SDS011;37974;53.218;6.640;2023-07-20T02:48:38;9.70;;;1.50;;
51949;SDS011;37974;53.218;6.640;2023-07-20T02:51:16;5.05;;;1.10;;
51949;SDS011;37974;53.218;6.640;2023-07-20T02:53:43;8.30;;;1.20;;
51949;SDS011;37974;53.218;6.640;2023-07-20T02:56:08;2.90;;;1.10;;
51949;SDS011;37974;53.218;6.640;2023-07-20T02:58:39;2.65;;;1.02;;
51949;SDS011;37974;53.218;6.640;2023-07-20T03:01:38;5.60;;;1.38;;
51949;SDS011;37974;53.218;6.640;2023-07-20T03:04:04;4.57;;;1.13;;
51949;SDS011;37974;53.218;6.640;2023-07-20T03:06:32;3.70;;;1.10;;
51949;SDS011;37974;53.218;6.640;2023-07-20T03:09:04;6.78;;;1.77;;
51949;SDS011;37974;53.218;6.640;2023-07-20T03:11:32;3.28;;;0.90;;
51949;SDS011;37974;53.218;6.640;2023-07-20T03:14:06;3.88;;;1.15;;
51949;SDS011;37974;53.218;6.640;2023-07-20T03:16:51;2.55;;;0.90;;
51949;SDS011;37974;53.218;6.640;2023-07-20T03:22:20;3.58;;;1.10;;
51949;SDS011;37974;53.218;6.640;2023-07-20T03:24:47;5.55;;;1.10;;
51949;SDS011;37974;53.218;6.640;2023-07-20T03:27:16;2.40;;;0.80;;
51949;SDS011;37974;53.218;6.640;2023-07-20T03:30:00;3.13;;;0.77;;
51949;SDS011;37974;53.218;6.640;2023-07-20T03:32:26;1.55;;;0.82;;
51949;SDS011;37974;53.218;6.640;2023-07-20T03:35:00;2.10;;;0.85;;
51949;SDS011;37974;53.218;6.640;2023-07-20T03:37:40;1.80;;;0.70;;
51949;SDS011;37974;53.218;6.640;2023-07-20T03:43:32;4.20;;;1.20;;
51949;SDS011;37974;53.218;6.640;2023-07-20T03:46:06;4.03;;;0.90;;
51949;SDS011;37974;53.218;6.640;2023-07-20T03:48:44;2.85;;;1.20;;
51949;SDS011;37974;53.218;6.640;2023-07-20T03:51:33;2.20;;;0.77;;
51949;SDS011;37974;53.218;6.640;2023-07-20T03:54:02;4.13;;;1.08;;
51949;SDS011;37974;53.218;6.640;2023-07-20T03:56:33;4.50;;;1.20;;
51949;SDS011;37974;53.218;6.640;2023-07-20T03:59:05;2.28;;;0.47;;
51949;SDS011;37974;53.218;6.640;2023-07-20T04:01:33;3.22;;;0.80;;
51949;SDS011;37974;53.218;6.640;2023-07-20T04:07:08;2.05;;;1.10;;
51949;SDS011;37974;53.218;6.640;2023-07-20T04:09:34;3.42;;;1.42;;
51949;SDS011;37974;53.218;6.640;2023-07-20T04:24:27;6.65;;;2.40;;
51949;SDS011;37974;53.218;6.640;2023-07-20T04:27:55;7.13;;;2.10;;
51949;SDS011;37974;53.218;6.640;2023-07-20T04:30:55;10.48;;;2.30;;
51949;SDS011;37974;53.218;6.640;2023-07-20T04:35:57;4.80;;;2.40;;
51949;SDS011;37974;53.218;6.640;2023-07-20T04:38:29;6.03;;;2.30;;
51949;SDS011;37974;53.218;6.640;2023-07-20T04:41:32;5.03;;;2.58;;
51949;SDS011;37974;53.218;6.640;2023-07-20T04:44:38;3.20;;;1.95;;
51949;SDS011;37974;53.218;6.640;2023-07-20T05:33:22;5.25;;;0.80;;
51949;SDS011;37974;53.218;6.640;2023-07-20T05:36:03;4.75;;;1.27;;
51949;SDS011;37974;53.218;6.640;2023-07-20T05:38:47;3.63;;;0.98;;
51949;SDS011;37974;53.218;6.640;2023-07-20T05:41:17;2.35;;;1.00;;
51949;SDS011;37974;53.218;6.640;2023-07-20T05:44:31;5.93;;;1.13;;
51949;SDS011;37974;53.218;6.640;2023-07-20T05:50:51;2.13;;;0.63;;
51949;SDS011;37974;53.218;6.640;2023-07-20T05:53:34;3.10;;;0.63;;
51949;SDS011;37974;53.218;6.640;2023-07-20T05:56:15;4.07;;;0.80;;
51949;SDS011;37974;53.218;6.640;2023-07-20T05:58:57;5.63;;;0.90;;
51949;SDS011;37974;53.218;6.640;2023-07-20T06:01:44;3.47;;;1.00;;
51949;SDS011;37974;53.218;6.640;2023-07-20T06:04:12;3.58;;;0.85;;
51949;SDS011;37974;53.218;6.640;2023-07-20T06:06:38;5.30;;;1.10;;
51949;SDS011;37974;53.218;6.640;2023-07-20T06:09:04;6.65;;;0.98;;
51949;SDS011;37974;53.218;6.640;2023-07-20T06:11:39;4.57;;;0.93;;
51949;SDS011;37974;53.218;6.640;2023-07-20T06:14:17;10.10;;;2.17;;
51949;SDS011;37974;53.218;6.640;2023-07-20T06:17:03;4.53;;;1.33;;
51949;SDS011;37974;53.218;6.640;2023-07-20T06:19:47;4.88;;;1.10;;
51949;SDS011;37974;53.218;6.640;2023-07-20T06:22:15;5.28;;;0.95;;
51949;SDS011;37974;53.218;6.640;2023-07-20T06:24:44;2.90;;;0.68;;
51949;SDS011;37974;53.218;6.640;2023-07-20T06:27:12;5.30;;;0.88;;
51949;SDS011;37974;53.218;6.640;2023-07-20T06:29:38;10.48;;;1.00;;
51949;SDS011;37974;53.218;6.640;2023-07-20T06:32:13;3.97;;;0.95;;
51949;SDS011;37974;53.218;6.640;2023-07-20T06:35:00;3.03;;;0.88;;
51949;SDS011;37974;53.218;6.640;2023-07-20T06:37:26;6.45;;;1.35;;
51949;SDS011;37974;53.218;6.640;2023-07-20T06:39:51;5.13;;;0.90;;
51949;SDS011;37974;53.218;6.640;2023-07-20T06:42:17;4.35;;;0.93;;
51949;SDS011;37974;53.218;6.640;2023-07-20T06:44:43;6.30;;;1.08;;
51949;SDS011;37974;53.218;6.640;2023-07-20T06:47:09;5.80;;;1.30;;
51949;SDS011;37974;53.218;6.640;2023-07-20T06:49:50;4.07;;;1.00;;
51949;SDS011;37974;53.218;6.640;2023-07-20T06:52:16;3.45;;;1.00;;
51949;SDS011;37974;53.218;6.640;2023-07-20T06:54:42;6.63;;;1.40;;
51949;SDS011;37974;53.218;6.640;2023-07-20T06:57:08;5.15;;;1.20;;
51949;SDS011;37974;53.218;6.640;2023-07-20T06:59:38;4.82;;;1.40;;
51949;SDS011;37974;53.218;6.640;2023-07-20T07:02:40;7.50;;;1.17;;
51949;SDS011;37974;53.218;6.640;2023-07-20T07:05:12;7.88;;;2.00;;
51949;SDS011;37974;53.218;6.640;2023-07-20T07:14:00;8.50;;;1.35;;
51949;SDS011;37974;53.218;6.640;2023-07-20T07:16:55;5.47;;;1.40;;
51949;SDS011;37974;53.218;6.640;2023-07-20T07:26:49;6.57;;;1.70;;
51949;SDS011;37974;53.218;6.640;2023-07-20T07:30:11;5.63;;;1.42;;
51949;SDS011;37974;53.218;6.640;2023-07-20T07:32:43;4.70;;;1.50;;
51949;SDS011;37974;53.218;6.640;2023-07-20T07:35:32;5.68;;;1.85;;
51949;SDS011;37974;53.218;6.640;2023-07-20T07:38:29;4.05;;;1.80;;
51949;SDS011;37974;53.218;6.640;2023-07-20T07:41:44;4.82;;;1.40;;
51949;SDS011;37974;53.218;6.640;2023-07-20T07:44:44;5.25;;;1.45;;
51949;SDS011;37974;53.218;6.640;2023-07-20T07:47:28;8.05;;;1.63;;
51949;SDS011;37974;53.218;6.640;2023-07-20T07:49:57;8.10;;;1.50;;
51949;SDS011;37974;53.218;6.640;2023-07-20T08:01:52;5.80;;;1.23;;
51949;SDS011;37974;53.218;6.640;2023-07-20T08:04:44;5.18;;;1.17;;
51949;SDS011;37974;53.218;6.640;2023-07-20T08:07:10;7.25;;;1.40;;
51949;SDS011;37974;53.218;6.640;2023-07-20T08:09:36;4.50;;;1.30;;
51949;SDS011;37974;53.218;6.640;2023-07-20T08:12:01;13.82;;;1.58;;
51949;SDS011;37974;53.218;6.640;2023-07-20T08:14:28;8.07;;;1.33;;
51949;SDS011;37974;53.218;6.640;2023-07-20T08:16:54;8.13;;;1.27;;
51949;SDS011;37974;53.218;6.640;2023-07-20T08:19:20;8.23;;;0.90;;
51949;SDS011;37974;53.218;6.640;2023-07-20T08:21:46;8.93;;;1.20;;
51949;SDS011;37974;53.218;6.640;2023-07-20T08:24:11;3.85;;;1.00;;
51949;SDS011;37974;53.218;6.640;2023-07-20T08:26:37;5.18;;;1.05;;
51949;SDS011;37974;53.218;6.640;2023-07-20T08:29:03;5.22;;;1.23;;
51949;SDS011;37974;53.218;6.640;2023-07-20T08:31:31;4.55;;;0.90;;
51949;SDS011;37974;53.218;6.640;2023-07-20T08:33:57;9.52;;;1.15;;
51949;SDS011;37974;53.218;6.640;2023-07-20T08:36:23;5.88;;;1.15;;
51949;SDS011;37974;53.218;6.640;2023-07-20T08:38:50;3.47;;;0.77;;
51949;SDS011;37974;53.218;6.640;2023-07-20T08:41:16;2.92;;;0.70;;
51949;SDS011;37974;53.218;6.640;2023-07-20T08:43:42;4.43;;;0.85;;
51949;SDS011;37974;53.218;6.640;2023-07-20T08:46:09;4.30;;;0.82;;
51949;SDS011;37974;53.218;6.640;2023-07-20T08:48:38;3.13;;;0.75;;
51949;SDS011;37974;53.218;6.640;2023-07-20T08:51:06;6.15;;;1.05;;
51949;SDS011;37974;53.218;6.640;2023-07-20T08:53:31;5.45;;;0.68;;
51949;SDS011;37974;53.218;6.640;2023-07-20T08:55:59;3.60;;;0.60;;
51949;SDS011;37974;53.218;6.640;2023-07-20T08:58:26;3.50;;;0.80;;
51949;SDS011;37974;53.218;6.640;2023-07-20T09:00:53;1.50;;;0.50;;
51949;SDS011;37974;53.218;6.640;2023-07-20T09:03:20;4.07;;;0.70;;
51949;SDS011;37974;53.218;6.640;2023-07-20T09:05:46;2.58;;;0.50;;
51949;SDS011;37974;53.218;6.640;2023-07-20T09:08:12;4.38;;;0.80;;
51949;SDS011;37974;53.218;6.640;2023-07-20T09:10:38;4.03;;;0.60;;
51949;SDS011;37974;53.218;6.640;2023-07-20T09:13:04;2.80;;;0.55;;
51949;SDS011;37974;53.218;6.640;2023-07-20T09:15:39;2.42;;;0.57;;
51949;SDS011;37974;53.218;6.640;2023-07-20T09:18:11;3.97;;;0.50;;
51949;SDS011;37974;53.218;6.640;2023-07-20T09:20:36;4.45;;;0.70;;
51949;SDS011;37974;53.218;6.640;2023-07-20T09:23:05;2.08;;;0.50;;
51949;SDS011;37974;53.218;6.640;2023-07-20T09:25:31;6.22;;;0.73;;
51949;SDS011;37974;53.218;6.640;2023-07-20T09:27:59;2.65;;;0.88;;
51949;SDS011;37974;53.218;6.640;2023-07-20T09:30:28;4.93;;;0.88;;
51949;SDS011;37974;53.218;6.640;2023-07-20T09:32:54;2.42;;;0.55;;
51949;SDS011;37974;53.218;6.640;2023-07-20T09:35:20;3.95;;;0.60;;
51949;SDS011;37974;53.218;6.640;2023-07-20T09:37:47;4.60;;;0.80;;
51949;SDS011;37974;53.218;6.640;2023-07-20T09:40:19;3.45;;;0.60;;
51949;SDS011;37974;53.218;6.640;2023-07-20T09:42:46;2.50;;;0.50;;
51949;SDS011;37974;53.218;6.640;2023-07-20T09:45:12;4.50;;;0.60;;
51949;SDS011;37974;53.218;6.640;2023-07-20T09:47:38;4.40;;;1.10;;
51949;SDS011;37974;53.218;6.640;2023-07-20T09:50:06;3.72;;;0.52;;
51949;SDS011;37974;53.218;6.640;2023-07-20T09:52:39;2.65;;;0.47;;
51949;SDS011;37974;53.218;6.640;2023-07-20T09:55:08;3.65;;;0.45;;
51949;SDS011;37974;53.218;6.640;2023-07-20T09:57:36;6.20;;;0.63;;
51949;SDS011;37974;53.218;6.640;2023-07-20T10:00:03;2.92;;;0.60;;
51949;SDS011;37974;53.218;6.640;2023-07-20T10:02:36;5.68;;;0.90;;
51949;SDS011;37974;53.218;6.640;2023-07-20T10:05:09;3.75;;;0.57;;
51949;SDS011;37974;53.218;6.640;2023-07-20T10:07:43;4.45;;;0.80;;
51949;SDS011;37974;53.218;6.640;2023-07-20T10:10:18;3.90;;;0.55;;
51949;SDS011;37974;53.218;6.640;2023-07-20T10:12:46;2.70;;;0.77;;
51949;SDS011;37974;53.218;6.640;2023-07-20T10:17:53;12.25;;;1.00;;
51949;SDS011;37974;53.218;6.640;2023-07-20T10:20:28;7.38;;;0.82;;
51949;SDS011;37974;53.218;6.640;2023-07-20T10:22:55;2.35;;;0.60;;
51949;SDS011;37974;53.218;6.640;2023-07-20T10:25:22;4.13;;;0.50;;
51949;SDS011;37974;53.218;6.640;2023-07-20T10:27:49;2.88;;;0.50;;
51949;SDS011;37974;53.218;6.640;2023-07-20T10:30:15;2.58;;;0.65;;
51949;SDS011;37974;53.218;6.640;2023-07-20T10:32:42;4.18;;;0.60;;
51949;SDS011;37974;53.218;6.640;2023-07-20T10:35:16;4.82;;;0.80;;
51949;SDS011;37974;53.218;6.640;2023-07-20T10:37:53;4.82;;;0.60;;
51949;SDS011;37974;53.218;6.640;2023-07-20T10:43:03;3.97;;;0.40;;
51949;SDS011;37974;53.218;6.640;2023-07-20T10:48:14;2.92;;;0.50;;
51949;SDS011;37974;53.218;6.640;2023-07-20T10:50:41;5.55;;;0.70;;
51949;SDS011;37974;53.218;6.640;2023-07-20T10:53:11;7.47;;;0.50;;
51949;SDS011;37974;53.218;6.640;2023-07-20T10:55:42;3.75;;;0.60;;
51949;SDS011;37974;53.218;6.640;2023-07-20T10:58:13;3.47;;;0.52;;
51949;SDS011;37974;53.218;6.640;2023-07-20T11:00:55;3.33;;;0.90;;
51949;SDS011;37974;53.218;6.640;2023-07-20T11:03:26;3.25;;;0.85;;
51949;SDS011;37974;53.218;6.640;2023-07-20T11:05:53;3.35;;;0.40;;
51949;SDS011;37974;53.218;6.640;2023-07-20T11:08:38;3.08;;;0.57;;
51949;SDS011;37974;53.218;6.640;2023-07-20T11:11:21;3.42;;;0.70;;
51949;SDS011;37974;53.218;6.640;2023-07-20T11:16:43;5.38;;;0.70;;
51949;SDS011;37974;53.218;6.640;2023-07-20T11:19:20;6.68;;;0.60;;
51949;SDS011;37974;53.218;6.640;2023-07-20T11:21:57;2.53;;;0.45;;
51949;SDS011;37974;53.218;6.640;2023-07-20T11:24:23;2.38;;;0.63;;
51949;SDS011;37974;53.218;6.640;2023-07-20T11:26:50;4.95;;;0.52;;
51949;SDS011;37974;53.218;6.640;2023-07-20T11:29:20;2.78;;;0.57;;
51949;SDS011;37974;53.218;6.640;2023-07-20T11:31:48;3.85;;;0.60;;
51949;SDS011;37974;53.218;6.640;2023-07-20T11:34:18;2.30;;;0.57;;
51949;SDS011;37974;53.218;6.640;2023-07-20T11:39:14;2.35;;;0.50;;
51949;SDS011;37974;53.218;6.640;2023-07-20T11:41:49;2.15;;;0.55;;
51949;SDS011;37974;53.218;6.640;2023-07-20T11:44:22;17.45;;;1.05;;
51949;SDS011;37974;53.218;6.640;2023-07-20T11:49:42;3.00;;;0.40;;
51949;SDS011;37974;53.218;6.640;2023-07-20T11:52:09;3.08;;;0.82;;
51949;SDS011;37974;53.218;6.640;2023-07-20T11:54:40;5.28;;;0.85;;
51949;SDS011;37974;53.218;6.640;2023-07-20T11:57:06;6.18;;;0.73;;
51949;SDS011;37974;53.218;6.640;2023-07-20T11:59:32;2.40;;;0.50;;
51949;SDS011;37974;53.218;6.640;2023-07-20T12:02:02;4.20;;;0.75;;
51949;SDS011;37974;53.218;6.640;2023-07-20T12:04:28;3.40;;;0.60;;
51949;SDS011;37974;53.218;6.640;2023-07-20T12:06:56;29.00;;;1.85;;
51949;SDS011;37974;53.218;6.640;2023-07-20T12:09:22;2.70;;;0.47;;
51949;SDS011;37974;53.218;6.640;2023-07-20T12:11:48;2.10;;;0.40;;
51949;SDS011;37974;53.218;6.640;2023-07-20T12:14:14;5.95;;;0.68;;
51949;SDS011;37974;53.218;6.640;2023-07-20T12:16:40;4.60;;;0.68;;
51949;SDS011;37974;53.218;6.640;2023-07-20T12:19:07;3.55;;;0.45;;
51949;SDS011;37974;53.218;6.640;2023-07-20T12:21:36;2.22;;;0.45;;
51949;SDS011;37974;53.218;6.640;2023-07-20T12:24:03;11.48;;;0.60;;
51949;SDS011;37974;53.218;6.640;2023-07-20T12:26:29;2.25;;;0.55;;
51949;SDS011;37974;53.218;6.640;2023-07-20T12:28:56;10.68;;;0.85;;
51949;SDS011;37974;53.218;6.640;2023-07-20T12:31:23;1.15;;;0.32;;
51949;SDS011;37974;53.218;6.640;2023-07-20T12:33:50;3.22;;;0.60;;
51949;SDS011;37974;53.218;6.640;2023-07-20T12:36:16;4.82;;;0.93;;
51949;SDS011;37974;53.218;6.640;2023-07-20T12:38:43;2.92;;;0.73;;
51949;SDS011;37974;53.218;6.640;2023-07-20T12:41:10;2.63;;;0.60;;
51949;SDS011;37974;53.218;6.640;2023-07-20T12:43:40;3.13;;;0.50;;
51949;SDS011;37974;53.218;6.640;2023-07-20T12:46:07;1.23;;;0.38;;
51949;SDS011;37974;53.218;6.640;2023-07-20T12:48:33;2.50;;;0.65;;
51949;SDS011;37974;53.218;6.640;2023-07-20T12:51:00;4.50;;;0.68;;
51949;SDS011;37974;53.218;6.640;2023-07-20T12:53:25;1.70;;;0.50;;
51949;SDS011;37974;53.218;6.640;2023-07-20T12:55:52;4.78;;;0.50;;
51949;SDS011;37974;53.218;6.640;2023-07-20T12:58:17;2.83;;;0.47;;
51949;SDS011;37974;53.218;6.640;2023-07-20T13:00:43;1.60;;;0.60;;
51949;SDS011;37974;53.218;6.640;2023-07-20T13:03:09;2.53;;;0.55;;
51949;SDS011;37974;53.218;6.640;2023-07-20T13:05:35;2.70;;;0.60;;
51949;SDS011;37974;53.218;6.640;2023-07-20T13:08:01;2.22;;;0.55;;
51949;SDS011;37974;53.218;6.640;2023-07-20T13:10:28;6.53;;;0.80;;
51949;SDS011;37974;53.218;6.640;2023-07-20T13:12:54;2.17;;;0.52;;
51949;SDS011;37974;53.218;6.640;2023-07-20T13:15:20;3.50;;;0.55;;
51949;SDS011;37974;53.218;6.640;2023-07-20T13:17:45;5.35;;;0.60;;
51949;SDS011;37974;53.218;6.640;2023-07-20T13:20:12;2.72;;;0.75;;
51949;SDS011;37974;53.218;6.640;2023-07-20T13:22:39;3.03;;;0.40;;
51949;SDS011;37974;53.218;6.640;2023-07-20T13:25:05;3.97;;;0.73;;
51949;SDS011;37974;53.218;6.640;2023-07-20T13:27:32;3.08;;;0.45;;
51949;SDS011;37974;53.218;6.640;2023-07-20T13:29:58;12.93;;;0.88;;
51949;SDS011;37974;53.218;6.640;2023-07-20T13:32:25;4.80;;;0.70;;
51949;SDS011;37974;53.218;6.640;2023-07-20T13:34:52;9.45;;;0.70;;
51949;SDS011;37974;53.218;6.640;2023-07-20T13:37:18;2.83;;;0.60;;
51949;SDS011;37974;53.218;6.640;2023-07-20T13:39:43;9.98;;;0.77;;
51949;SDS011;37974;53.218;6.640;2023-07-20T13:42:09;5.55;;;1.65;;
51949;SDS011;37974;53.218;6.640;2023-07-20T13:44:37;3.90;;;0.90;;
51949;SDS011;37974;53.218;6.640;2023-07-20T13:47:03;4.13;;;0.63;;
51949;SDS011;37974;53.218;6.640;2023-07-20T13:49:31;1.85;;;0.60;;
51949;SDS011;37974;53.218;6.640;2023-07-20T13:51:57;6.43;;;0.75;;
51949;SDS011;37974;53.218;6.640;2023-07-20T13:54:23;9.23;;;0.68;;
51949;SDS011;37974;53.218;6.640;2023-07-20T13:56:49;2.95;;;0.60;;
51949;SDS011;37974;53.218;6.640;2023-07-20T13:59:16;5.45;;;0.85;;
51949;SDS011;37974;53.218;6.640;2023-07-20T14:01:42;3.47;;;0.55;;
51949;SDS011;37974;53.218;6.640;2023-07-20T14:04:09;1.75;;;0.50;;
51949;SDS011;37974;53.218;6.640;2023-07-20T14:06:35;3.45;;;0.52;;
51949;SDS011;37974;53.218;6.640;2023-07-20T14:09:01;3.72;;;0.80;;
51949;SDS011;37974;53.218;6.640;2023-07-20T14:11:28;5.85;;;0.52;;
51949;SDS011;37974;53.218;6.640;2023-07-20T14:13:54;6.25;;;0.70;;
51949;SDS011;37974;53.218;6.640;2023-07-20T14:16:20;4.28;;;0.90;;
51949;SDS011;37974;53.218;6.640;2023-07-20T14:18:47;2.63;;;0.57;;
51949;SDS011;37974;53.218;6.640;2023-07-20T14:21:17;4.03;;;0.70;;
51949;SDS011;37974;53.218;6.640;2023-07-20T14:23:45;2.08;;;0.50;;
51949;SDS011;37974;53.218;6.640;2023-07-20T14:26:11;6.20;;;0.85;;
51949;SDS011;37974;53.218;6.640;2023-07-20T14:28:37;5.07;;;0.80;;
51949;SDS011;37974;53.218;6.640;2023-07-20T14:31:03;5.43;;;0.75;;
51949;SDS011;37974;53.218;6.640;2023-07-20T14:33:30;4.10;;;0.88;;
51949;SDS011;37974;53.218;6.640;2023-07-20T14:35:57;4.30;;;0.70;;
51949;SDS011;37974;53.218;6.640;2023-07-20T14:38:23;4.68;;;0.60;;
51949;SDS011;37974;53.218;6.640;2023-07-20T14:40:49;5.85;;;1.00;;
51949;SDS011;37974;53.218;6.640;2023-07-20T14:43:15;2.38;;;0.60;;
51949;SDS011;37974;53.218;6.640;2023-07-20T14:45:41;6.40;;;0.77;;
51949;SDS011;37974;53.218;6.640;2023-07-20T14:48:07;2.10;;;0.50;;
51949;SDS011;37974;53.218;6.640;2023-07-20T14:50:33;10.55;;;1.13;;
51949;SDS011;37974;53.218;6.640;2023-07-20T14:52:59;9.57;;;1.00;;
51949;SDS011;37974;53.218;6.640;2023-07-20T14:55:25;23.45;;;1.50;;
51949;SDS011;37974;53.218;6.640;2023-07-20T14:57:51;26.25;;;1.58;;
51949;SDS011;37974;53.218;6.640;2023-07-20T15:00:17;4.75;;;0.80;;
51949;SDS011;37974;53.218;6.640;2023-07-20T15:02:43;6.85;;;0.80;;
51949;SDS011;37974;53.218;6.640;2023-07-20T15:05:09;4.05;;;0.82;;
51949;SDS011;37974;53.218;6.640;2023-07-20T15:07:36;4.50;;;0.80;;
51949;SDS011;37974;53.218;6.640;2023-07-20T15:10:03;3.75;;;0.88;;
51949;SDS011;37974;53.218;6.640;2023-07-20T15:12:30;3.63;;;0.77;;
51949;SDS011;37974;53.218;6.640;2023-07-20T15:17:29;3.45;;;0.95;;
51949;SDS011;37974;53.218;6.640;2023-07-20T15:19:55;6.85;;;1.23;;
51949;SDS011;37974;53.218;6.640;2023-07-20T15:22:20;43.20;;;3.03;;
51949;SDS011;37974;53.218;6.640;2023-07-20T15:24:47;58.30;;;4.15;;
51949;SDS011;37974;53.218;6.640;2023-07-20T15:27:13;9.80;;;1.23;;
51949;SDS011;37974;53.218;6.640;2023-07-20T15:29:38;5.40;;;1.20;;
51949;SDS011;37974;53.218;6.640;2023-07-20T15:32:04;4.43;;;1.10;;
51949;SDS011;37974;53.218;6.640;2023-07-20T15:34:31;59.90;;;3.92;;
51949;SDS011;37974;53.218;6.640;2023-07-20T15:36:57;9.57;;;1.30;;
51949;SDS011;37974;53.218;6.640;2023-07-20T15:39:23;5.88;;;1.13;;
51949;SDS011;37974;53.218;6.640;2023-07-20T15:41:49;7.05;;;1.17;;
51949;SDS011;37974;53.218;6.640;2023-07-20T15:44:15;3.08;;;0.93;;
51949;SDS011;37974;53.218;6.640;2023-07-20T15:49:07;3.58;;;1.40;;
51949;SDS011;37974;53.218;6.640;2023-07-20T15:51:35;6.05;;;1.50;;
51949;SDS011;37974;53.218;6.640;2023-07-20T15:54:02;4.90;;;1.10;;
51949;SDS011;37974;53.218;6.640;2023-07-20T15:56:28;9.13;;;1.25;;
51949;SDS011;37974;53.218;6.640;2023-07-20T15:58:53;5.78;;;1.08;;
51949;SDS011;37974;53.218;6.640;2023-07-20T16:01:19;17.45;;;1.25;;
51949;SDS011;37974;53.218;6.640;2023-07-20T16:03:45;9.27;;;1.30;;
51949;SDS011;37974;53.218;6.640;2023-07-20T16:06:11;6.63;;;1.00;;
51949;SDS011;37974;53.218;6.640;2023-07-20T16:08:36;4.90;;;0.98;;
51949;SDS011;37974;53.218;6.640;2023-07-20T16:11:02;3.45;;;0.90;;
51949;SDS011;37974;53.218;6.640;2023-07-20T16:13:28;3.08;;;0.98;;
51949;SDS011;37974;53.218;6.640;2023-07-20T16:15:54;3.33;;;0.80;;
51949;SDS011;37974;53.218;6.640;2023-07-20T16:18:20;3.17;;;0.77;;
51949;SDS011;37974;53.218;6.640;2023-07-20T16:20:46;5.57;;;0.90;;
51949;SDS011;37974;53.218;6.640;2023-07-20T16:23:12;3.08;;;0.80;;
51949;SDS011;37974;53.218;6.640;2023-07-20T16:25:38;7.40;;;1.08;;
51949;SDS011;37974;53.218;6.640;2023-07-20T16:28:04;3.05;;;0.80;;
51949;SDS011;37974;53.218;6.640;2023-07-20T16:30:30;5.70;;;1.00;;
51949;SDS011;37974;53.218;6.640;2023-07-20T16:32:56;6.85;;;1.02;;
51949;SDS011;37974;53.218;6.640;2023-07-20T16:35:22;4.82;;;0.90;;
51949;SDS011;37974;53.218;6.640;2023-07-20T16:37:48;4.70;;;0.90;;
51949;SDS011;37974;53.218;6.640;2023-07-20T16:40:14;4.50;;;1.00;;
51949;SDS011;37974;53.218;6.640;2023-07-20T16:42:41;5.95;;;1.10;;
51949;SDS011;37974;53.218;6.640;2023-07-20T16:45:07;5.30;;;0.73;;
51949;SDS011;37974;53.218;6.640;2023-07-20T16:47:33;6.40;;;0.95;;
51949;SDS011;37974;53.218;6.640;2023-07-20T16:49:59;7.00;;;0.90;;
51949;SDS011;37974;53.218;6.640;2023-07-20T16:52:25;4.03;;;0.70;;
51949;SDS011;37974;53.218;6.640;2023-07-20T16:54:52;7.40;;;0.65;;
51949;SDS011;37974;53.218;6.640;2023-07-20T16:57:18;3.10;;;0.80;;
51949;SDS011;37974;53.218;6.640;2023-07-20T16:59:46;6.03;;;0.85;;
51949;SDS011;37974;53.218;6.640;2023-07-20T17:02:12;4.80;;;0.90;;
51949;SDS011;37974;53.218;6.640;2023-07-20T17:04:38;5.78;;;0.80;;
51949;SDS011;37974;53.218;6.640;2023-07-20T17:07:03;6.68;;;0.77;;
51949;SDS011;37974;53.218;6.640;2023-07-20T17:09:29;4.53;;;0.68;;
51949;SDS011;37974;53.218;6.640;2023-07-20T17:12:00;1.40;;;0.50;;
51949;SDS011;37974;53.218;6.640;2023-07-20T17:14:26;4.45;;;0.80;;
51949;SDS011;37974;53.218;6.640;2023-07-20T17:16:55;3.50;;;0.82;;
51949;SDS011;37974;53.218;6.640;2023-07-20T17:19:20;3.10;;;0.60;;
51949;SDS011;37974;53.218;6.640;2023-07-20T17:21:46;3.17;;;0.68;;